UAM12 EGOW-EGOW

Flight info

Callsign UAM12
Flight time N/A
Altitude 6000
Route WAL
Aircraft G115/L-SFG/C

Departure

Time 2026-04-24 19:17
Airport RAF Woodvale (EGOW)

Arrival

Time N/A
Airport RAF Woodvale (EGOW)
Time Latitude Longitude Altitude Speed Heading
2026-04-24 18:54 53.58218 -3.05053 34 ft 0 kts 167°
2026-04-24 19:12 53.58211 -3.05068 33 ft 1 kts 252°
2026-04-24 19:12 53.58227 -3.05083 33 ft 7 kts 343°
2026-04-24 19:13 53.58272 -3.05106 33 ft 13 kts 353°
2026-04-24 19:13 53.58434 -3.05139 34 ft 21 kts
2026-04-24 19:13 53.58560 -3.05158 34 ft 15 kts 358°
2026-04-24 19:13 53.58644 -3.05204 34 ft 9 kts 309°
2026-04-24 19:14 53.58682 -3.05230 33 ft 3 kts 310°
2026-04-24 19:14 53.58680 -3.05253 33 ft 4 kts 243°
2026-04-24 19:14 53.58658 -3.05294 33 ft 6 kts 175°
2026-04-24 19:14 53.58646 -3.05291 33 ft 0 kts 238°
2026-04-24 19:16 53.58643 -3.05296 33 ft 3 kts 226°
2026-04-24 19:16 53.58610 -3.05320 33 ft 8 kts 205°
2026-04-24 19:17 53.58323 -3.05574 57 ft 85 kts 210°
2026-04-24 19:17 53.57730 -3.06178 495 ft 104 kts 211°
2026-04-24 19:17 53.57251 -3.06869 1203 ft 90 kts 245°
2026-04-24 19:17 53.57483 -3.07933 1517 ft 109 kts 308°
2026-04-24 19:18 53.58181 -3.08612 1632 ft 128 kts
2026-04-24 19:18 53.58808 -3.07675 1924 ft 123 kts 57°
2026-04-24 19:18 53.59348 -3.06450 2028 ft 130 kts 55°
2026-04-24 19:18 53.59941 -3.05343 2313 ft 126 kts 48°
2026-04-24 19:19 53.60480 -3.04340 2813 ft 105 kts 51°
2026-04-24 19:19 53.60969 -3.03513 3300 ft 96 kts 48°
2026-04-24 19:19 53.61393 -3.02726 3742 ft 90 kts 57°
2026-04-24 19:19 53.61790 -3.01741 3840 ft 117 kts 64°
2026-04-24 19:20 53.62220 -3.00530 4018 ft 119 kts 62°
2026-04-24 19:20 53.62644 -2.99328 4184 ft 124 kts 62°
2026-04-24 19:20 53.63110 -2.98054 4145 ft 134 kts 59°
2026-04-24 19:20 53.63642 -2.96782 4195 ft 132 kts 53°
2026-04-24 19:21 53.64376 -2.96065 4297 ft 131 kts 355°
2026-04-24 19:21 53.64797 -2.95223 3995 ft 138 kts 149°
2026-04-24 19:21 53.64875 -2.96069 4207 ft 122 kts 340°
2026-04-24 19:21 53.65772 -2.96222 4108 ft 138 kts
2026-04-24 19:22 53.66736 -2.96165 4059 ft 141 kts
2026-04-24 19:22 53.67736 -2.96175 3903 ft 145 kts 359°
2026-04-24 19:22 53.68716 -2.96213 3896 ft 140 kts
2026-04-24 19:22 53.69704 -2.96149 3778 ft 144 kts
2026-04-24 19:23 53.70704 -2.96135 3702 ft 144 kts
2026-04-24 19:23 53.71681 -2.96103 3725 ft 137 kts 14°
2026-04-24 19:23 53.72458 -2.95391 3955 ft 119 kts 54°
2026-04-24 19:23 53.72933 -2.94203 3952 ft 121 kts 61°
2026-04-24 19:24 53.73350 -2.93079 3979 ft 122 kts 60°
2026-04-24 19:24 53.73785 -2.91812 3884 ft 110 kts 66°
2026-04-24 19:24 53.73986 -2.90730 4144 ft 96 kts 118°
2026-04-24 19:24 53.73608 -2.90998 4249 ft 98 kts 304°
2026-04-24 19:25 53.73926 -2.90672 4350 ft 86 kts 141°
2026-04-24 19:25 53.73721 -2.91217 4552 ft 76 kts 301°
2026-04-24 19:25 53.73979 -2.92202 4546 ft 101 kts 287°
2026-04-24 19:25 53.74327 -2.93101 4844 ft 82 kts 332°
2026-04-24 19:26 53.74814 -2.92862 4931 ft 89 kts 55°
2026-04-24 19:26 53.75006 -2.91791 4854 ft 106 kts 81°
2026-04-24 19:26 53.75076 -2.90674 5106 ft 22 kts 89°
2026-04-24 19:26 53.75236 -2.90049 4439 ft 119 kts 77°
2026-04-24 19:27 53.75053 -2.88824 4111 ft 129 kts 157°
2026-04-24 19:27 53.74299 -2.88385 4319 ft 99 kts 152°
2026-04-24 19:27 53.73728 -2.87782 4490 ft 96 kts 141°
2026-04-24 19:27 53.73284 -2.86849 4409 ft 111 kts 133°
2026-04-24 19:28 53.72601 -2.86873 4568 ft 94 kts 181°
2026-04-24 19:28 53.72358 -2.87463 4594 ft 104 kts 328°
2026-04-24 19:28 53.73073 -2.88108 4423 ft 123 kts 331°
2026-04-24 19:28 53.73795 -2.88857 4368 ft 123 kts 327°
2026-04-24 19:29 53.74888 -2.88127 4468 ft 113 kts 100°
2026-04-24 19:29 53.74597 -2.86856 4393 ft 115 kts 114°
2026-04-24 19:29 53.74288 -2.85635 4391 ft 111 kts 111°
2026-04-24 19:30 53.74030 -2.84418 4367 ft 115 kts 114°
2026-04-24 19:30 53.73724 -2.83212 4317 ft 112 kts 114°
2026-04-24 19:30 53.73436 -2.81961 4144 ft 116 kts 110°
2026-04-24 19:30 53.73231 -2.80742 4249 ft 98 kts 105°
2026-04-24 19:31 53.72833 -2.79889 4303 ft 90 kts 176°
2026-04-24 19:31 53.72953 -2.80504 4081 ft 103 kts 30°
2026-04-24 19:31 53.72819 -2.79862 4274 ft 77 kts 194°
2026-04-24 19:31 53.72665 -2.80622 4302 ft 95 kts 286°
2026-04-24 19:32 53.72874 -2.81893 4030 ft 120 kts 285°
2026-04-24 19:32 53.73084 -2.83226 3995 ft 116 kts 285°
2026-04-24 19:32 53.73339 -2.84586 3731 ft 127 kts 291°
2026-04-24 19:32 53.73709 -2.85871 3727 ft 115 kts 297°
2026-04-24 19:33 53.74073 -2.87116 3612 ft 120 kts 294°
2026-04-24 19:33 53.74344 -2.88424 3577 ft 117 kts 281°
2026-04-24 19:33 53.74536 -2.89759 3580 ft 112 kts 285°
2026-04-24 19:33 53.74781 -2.91164 3242 ft 112 kts 288°
2026-04-24 19:34 53.74849 -2.91494 3046 ft 85 kts 317°
2026-04-24 19:34 53.75557 -2.92484 2652 ft 122 kts 340°
2026-04-24 19:34 53.75972 -2.91748 2741 ft 95 kts 109°
2026-04-24 19:34 53.75718 -2.90758 2893 ft 92 kts 116°
2026-04-24 19:35 53.75444 -2.89787 2989 ft 92 kts 133°
2026-04-24 19:35 53.74918 -2.88917 2586 ft 125 kts 137°
2026-04-24 19:35 53.74390 -2.88275 2847 ft 93 kts 201°
2026-04-24 19:35 53.73987 -2.88948 2625 ft 98 kts 135°
2026-04-24 19:36 53.74233 -2.88954 2598 ft 83 kts 254°
2026-04-24 19:36 53.74032 -2.88665 2306 ft 102 kts 30°
2026-04-24 19:36 53.73574 -2.88399 1936 ft 82 kts 165°
2026-04-24 19:36 53.73091 -2.88155 2215 ft 76 kts 161°
2026-04-24 19:37 53.72579 -2.87799 2395 ft 86 kts 153°
2026-04-24 19:37 53.72215 -2.87175 2631 ft 89 kts 80°
2026-04-24 19:37 53.72793 -2.87492 2595 ft 107 kts 323°
2026-04-24 19:37 53.73317 -2.88294 2986 ft 97 kts 313°
2026-04-24 19:38 53.73877 -2.88963 3263 ft 102 kts 329°
2026-04-24 19:38 53.74446 -2.89585 3667 ft 90 kts 326°
2026-04-24 19:38 53.74914 -2.90211 4017 ft 85 kts 319°
2026-04-24 19:38 53.75454 -2.90088 3950 ft 114 kts 72°
2026-04-24 19:39 53.75214 -2.88880 4064 ft 111 kts 119°
2026-04-24 19:39 53.74915 -2.87880 4564 ft 87 kts 114°
2026-04-24 19:39 53.74724 -2.86921 4865 ft 92 kts 106°
2026-04-24 19:39 53.74523 -2.85668 4448 ft 129 kts 107°
2026-04-24 19:40 53.74480 -2.85212 5145 ft 15 kts 294°
2026-04-24 19:40 53.73796 -2.84731 4583 ft 121 kts 179°
2026-04-24 19:40 53.73556 -2.85816 4957 ft 119 kts 293°
2026-04-24 19:40 53.73861 -2.87133 5028 ft 128 kts 290°
2026-04-24 19:41 53.74143 -2.88284 5416 ft 22 kts 135°
2026-04-24 19:41 53.74496 -2.88912 4384 ft 170 kts 313°
2026-04-24 19:41 53.75123 -2.90079 4401 ft 109 kts 313°
2026-04-24 19:41 53.75673 -2.91058 4087 ft 113 kts 318°
2026-04-24 19:42 53.75846 -2.91148 3420 ft 163 kts 330°
2026-04-24 19:42 53.76677 -2.91412 3425 ft 113 kts 34°
2026-04-24 19:42 53.77292 -2.90736 3111 ft 112 kts 76°
2026-04-24 19:42 53.77273 -2.89365 2594 ft 113 kts 105°
2026-04-24 19:43 53.77092 -2.88165 2663 ft 97 kts 105°
2026-04-24 19:43 53.77012 -2.87055 2819 ft 99 kts 91°
2026-04-24 19:43 53.77036 -2.85826 2801 ft 106 kts 107°
2026-04-24 19:43 53.76604 -2.84911 2949 ft 95 kts 147°
2026-04-24 19:44 53.76032 -2.84346 3073 ft 102 kts 149°
2026-04-24 19:44 53.75417 -2.83784 3345 ft 98 kts 144°
2026-04-24 19:44 53.74876 -2.82978 3376 ft 114 kts 138°
2026-04-24 19:44 53.74303 -2.82073 3228 ft 110 kts 136°
2026-04-24 19:45 53.73741 -2.81175 3083 ft 108 kts 139°
2026-04-24 19:45 53.73189 -2.80363 3024 ft 104 kts 140°
2026-04-24 19:45 53.72642 -2.79552 2937 ft 106 kts 138°
2026-04-24 19:45 53.72117 -2.78742 2935 ft 102 kts 139°
2026-04-24 19:46 53.71597 -2.77946 2926 ft 100 kts 140°
2026-04-24 19:46 53.71073 -2.77204 2958 ft 96 kts 139°
2026-04-24 19:46 53.70681 -2.76339 3048 ft 93 kts 126°
2026-04-24 19:46 53.70244 -2.75591 3143 ft 86 kts 168°
2026-04-24 19:47 53.69680 -2.76066 3245 ft 109 kts 240°
2026-04-24 19:47 53.69788 -2.77307 3399 ft 119 kts 316°
2026-04-24 19:47 53.70442 -2.78227 3511 ft 120 kts 317°
2026-04-24 19:47 53.70939 -2.79243 3851 ft 109 kts 306°
2026-04-24 19:48 53.71505 -2.80150 3932 ft 119 kts 351°
2026-04-24 19:48 53.72152 -2.79503 4096 ft 111 kts 68°
2026-04-24 19:48 53.71558 -2.77267 4294 ft 114 kts 134°
2026-04-24 19:49 53.70553 -2.75239 4555 ft 115 kts 126°
2026-04-24 19:49 53.69668 -2.72938 4663 ft 113 kts 120°
2026-04-24 19:50 53.68681 -2.69543 5034 ft 114 kts 112°
2026-04-24 19:50 53.68418 -2.68312 5008 ft 103 kts 111°
2026-04-24 19:51 53.67963 -2.65952 4587 ft 74 kts 98°
2026-04-24 19:51 53.67918 -2.64901 4232 ft 120 kts 96°
2026-04-24 19:52 53.67864 -2.62034 3558 ft 124 kts 90°
2026-04-24 19:52 53.67634 -2.60730 3416 ft 111 kts 122°
2026-04-24 19:52 53.67252 -2.59638 3259 ft 103 kts 123°
2026-04-24 19:52 53.66872 -2.58576 2899 ft 106 kts 122°
2026-04-24 19:53 53.66171 -2.56800 2692 ft 85 kts 126°
2026-04-24 19:54 53.65835 -2.55891 2460 ft 98 kts 126°
2026-04-24 19:54 53.65441 -2.54916 2238 ft 100 kts 127°
2026-04-24 19:54 53.65059 -2.53941 2056 ft 99 kts 124°
2026-04-24 19:54 53.64697 -2.52961 1894 ft 98 kts 123°